This is the latest recevied weather packets stored in our database for station/object ED3YAB-7. If no packets are shown the sender has not sent any weather packets the latest 10 day(s).
| Time | Temp. | Humidity | Pressure | Rain* | Wind** | Luminosity | Snow |
|---|---|---|---|---|---|---|---|
| 1777576028 | 18.89° C | 45% | 1021.9 hPa | - | - | - | - |
| 1777574828 | 19.44° C | 40% | 1021.5 hPa | - | - | - | - |
| 1777574553 | 19.44° C | 39% | 1021.5 hPa | - | - | - | - |
| 1777573353 | 22.78° C | 31% | 1021.3 hPa | - | - | - | - |
| 1777572153 | 28.33° C | 23% | 1021 hPa | - | - | - | - |
| 1777570953 | 33.89° C | 17% | 1020.9 hPa | - | - | - | - |
| 1777569752 | 37.22° C | 15% | 1020.8 hPa | - | - | - | - |
| 1777568552 | 38.33° C | 15% | 1020.7 hPa | - | - | - | - |
| 1777567352 | 40.56° C | 13% | 1020.7 hPa | - | - | - | - |
| 1777566152 | 41.11° C | 13% | 1020.9 hPa | - | - | - | - |
| 1777564952 | 42.22° C | 13% | 1020.8 hPa | - | - | - | - |
| 1777564064 | 43.33° C | 12% | 1020.8 hPa | - | - | - | - |
| 1777563753 | 43.33° C | 12% | 1020.8 hPa | - | - | - | - |
| 1777562553 | 42.78° C | 12% | 1020.6 hPa | - | - | - | - |
| 1777561353 | 42.78° C | 12% | 1020.4 hPa | - | - | - | - |
| 1777560153 | 41.11° C | 13% | 1020.5 hPa | - | - | - | - |
| 1777558960 | 42.78° C | 12% | 1020.5 hPa | - | - | - | - |
| 1777558953 | 42.78° C | 12% | 1020.5 hPa | - | - | - | - |
| 1777557753 | 42.22° C | 13% | 1020.7 hPa | - | - | - | - |
| 1777556560 | 38.89° C | 15% | 1020.8 hPa | - | - | - | - |
| 1777556553 | 38.89° C | 15% | 1020.8 hPa | - | - | - | - |
| 1777555360 | 41.11° C | 15% | 1020.8 hPa | - | - | - | - |
| 1777555352 | 41.11° C | 15% | 1020.8 hPa | - | - | - | - |
| 1777554152 | 40° C | 15% | 1020.9 hPa | - | - | - | - |
| 1777552959 | 29.44° C | 26% | 1021.1 hPa | - | - | - | - |
* Rain since midnight (hover to see other rain measurements)
** Current wind speed in m/s (hover to see current wind gust speed)